sensor_id;sensor_type;location;lat;lon;timestamp;P1;durP1;ratioP1;P2;durP2;ratioP2
29240;SDS011;16268;49.880;8.648;2023-03-22T00:00:33;7.53;;;3.73;;
29240;SDS011;16268;49.880;8.648;2023-03-22T00:03:02;6.53;;;3.90;;
29240;SDS011;16268;49.880;8.648;2023-03-22T00:05:28;7.35;;;3.85;;
29240;SDS011;16268;49.880;8.648;2023-03-22T00:07:56;8.07;;;3.97;;
29240;SDS011;16268;49.880;8.648;2023-03-22T00:10:23;7.90;;;4.10;;
29240;SDS011;16268;49.880;8.648;2023-03-22T00:12:53;7.82;;;4.20;;
29240;SDS011;16268;49.880;8.648;2023-03-22T00:15:19;7.22;;;4.40;;
29240;SDS011;16268;49.880;8.648;2023-03-22T00:17:44;7.68;;;4.05;;
29240;SDS011;16268;49.880;8.648;2023-03-22T00:20:10;7.43;;;4.10;;
29240;SDS011;16268;49.880;8.648;2023-03-22T00:22:37;7.78;;;4.45;;
29240;SDS011;16268;49.880;8.648;2023-03-22T00:25:03;9.02;;;4.40;;
29240;SDS011;16268;49.880;8.648;2023-03-22T00:27:30;7.30;;;4.22;;
29240;SDS011;16268;49.880;8.648;2023-03-22T00:29:55;7.63;;;4.45;;
29240;SDS011;16268;49.880;8.648;2023-03-22T00:32:21;9.98;;;4.47;;
29240;SDS011;16268;49.880;8.648;2023-03-22T00:34:47;8.32;;;4.78;;
29240;SDS011;16268;49.880;8.648;2023-03-22T00:37:12;7.45;;;4.15;;
29240;SDS011;16268;49.880;8.648;2023-03-22T00:39:40;9.20;;;4.32;;
29240;SDS011;16268;49.880;8.648;2023-03-22T00:42:06;10.63;;;4.40;;
29240;SDS011;16268;49.880;8.648;2023-03-22T00:44:32;8.75;;;4.47;;
29240;SDS011;16268;49.880;8.648;2023-03-22T00:46:58;6.80;;;3.67;;
29240;SDS011;16268;49.880;8.648;2023-03-22T00:49:23;9.98;;;4.60;;
29240;SDS011;16268;49.880;8.648;2023-03-22T00:51:52;8.70;;;4.22;;
29240;SDS011;16268;49.880;8.648;2023-03-22T00:54:17;8.07;;;4.35;;
29240;SDS011;16268;49.880;8.648;2023-03-22T00:56:43;10.10;;;4.32;;
29240;SDS011;16268;49.880;8.648;2023-03-22T00:59:09;6.60;;;4.13;;
29240;SDS011;16268;49.880;8.648;2023-03-22T01:01:36;7.43;;;4.28;;
29240;SDS011;16268;49.880;8.648;2023-03-22T01:04:02;6.57;;;3.92;;
29240;SDS011;16268;49.880;8.648;2023-03-22T01:06:29;9.82;;;4.18;;
29240;SDS011;16268;49.880;8.648;2023-03-22T01:08:55;8.85;;;4.13;;
29240;SDS011;16268;49.880;8.648;2023-03-22T01:11:21;7.63;;;4.30;;
29240;SDS011;16268;49.880;8.648;2023-03-22T01:13:47;7.82;;;4.28;;
29240;SDS011;16268;49.880;8.648;2023-03-22T01:16:13;7.32;;;4.10;;
29240;SDS011;16268;49.880;8.648;2023-03-22T01:18:39;6.60;;;4.00;;
29240;SDS011;16268;49.880;8.648;2023-03-22T01:21:05;8.40;;;3.97;;
29240;SDS011;16268;49.880;8.648;2023-03-22T01:23:30;8.63;;;4.05;;
29240;SDS011;16268;49.880;8.648;2023-03-22T01:25:56;6.68;;;4.00;;
29240;SDS011;16268;49.880;8.648;2023-03-22T01:28:22;7.45;;;4.00;;
29240;SDS011;16268;49.880;8.648;2023-03-22T01:30:47;8.30;;;4.72;;
29240;SDS011;16268;49.880;8.648;2023-03-22T01:33:14;11.35;;;4.72;;
29240;SDS011;16268;49.880;8.648;2023-03-22T01:35:40;10.02;;;4.25;;
29240;SDS011;16268;49.880;8.648;2023-03-22T01:38:06;9.93;;;4.78;;
29240;SDS011;16268;49.880;8.648;2023-03-22T01:40:31;6.35;;;4.05;;
29240;SDS011;16268;49.880;8.648;2023-03-22T01:42:57;6.53;;;4.05;;
29240;SDS011;16268;49.880;8.648;2023-03-22T01:48:04;9.13;;;4.18;;
29240;SDS011;16268;49.880;8.648;2023-03-22T01:50:41;7.63;;;4.07;;
29240;SDS011;16268;49.880;8.648;2023-03-22T01:53:15;8.30;;;4.47;;
29240;SDS011;16268;49.880;8.648;2023-03-22T01:55:43;8.23;;;4.72;;
29240;SDS011;16268;49.880;8.648;2023-03-22T01:58:10;10.57;;;4.38;;
29240;SDS011;16268;49.880;8.648;2023-03-22T02:00:39;7.82;;;4.50;;
29240;SDS011;16268;49.880;8.648;2023-03-22T02:03:05;8.68;;;4.00;;
29240;SDS011;16268;49.880;8.648;2023-03-22T02:05:31;9.65;;;4.47;;
29240;SDS011;16268;49.880;8.648;2023-03-22T02:07:58;8.57;;;4.35;;
29240;SDS011;16268;49.880;8.648;2023-03-22T02:10:25;7.63;;;4.63;;
29240;SDS011;16268;49.880;8.648;2023-03-22T02:12:57;10.68;;;5.05;;
29240;SDS011;16268;49.880;8.648;2023-03-22T02:21:35;9.13;;;4.70;;
29240;SDS011;16268;49.880;8.648;2023-03-22T02:30:20;8.27;;;4.30;;
29240;SDS011;16268;49.880;8.648;2023-03-22T02:32:53;7.47;;;4.20;;
29240;SDS011;16268;49.880;8.648;2023-03-22T02:40:48;6.72;;;4.30;;
29240;SDS011;16268;49.880;8.648;2023-03-22T02:46:03;8.82;;;4.13;;
29240;SDS011;16268;49.880;8.648;2023-03-22T02:48:31;8.43;;;4.63;;
29240;SDS011;16268;49.880;8.648;2023-03-22T02:51:14;8.32;;;4.55;;
29240;SDS011;16268;49.880;8.648;2023-03-22T02:53:58;8.73;;;4.60;;
29240;SDS011;16268;49.880;8.648;2023-03-22T02:56:41;8.48;;;4.93;;
29240;SDS011;16268;49.880;8.648;2023-03-22T02:59:12;7.85;;;5.15;;
29240;SDS011;16268;49.880;8.648;2023-03-22T03:01:41;11.10;;;5.22;;
29240;SDS011;16268;49.880;8.648;2023-03-22T03:04:13;9.15;;;5.32;;
29240;SDS011;16268;49.880;8.648;2023-03-22T03:06:43;8.10;;;4.90;;
29240;SDS011;16268;49.880;8.648;2023-03-22T03:09:12;9.68;;;5.47;;
29240;SDS011;16268;49.880;8.648;2023-03-22T03:11:42;8.57;;;5.22;;
29240;SDS011;16268;49.880;8.648;2023-03-22T03:14:22;10.20;;;5.78;;
29240;SDS011;16268;49.880;8.648;2023-03-22T03:16:55;7.93;;;5.45;;
29240;SDS011;16268;49.880;8.648;2023-03-22T03:25:34;8.27;;;4.88;;
29240;SDS011;16268;49.880;8.648;2023-03-22T03:31:02;11.75;;;5.50;;
29240;SDS011;16268;49.880;8.648;2023-03-22T03:33:34;9.75;;;5.50;;
29240;SDS011;16268;49.880;8.648;2023-03-22T03:36:07;11.23;;;5.82;;
29240;SDS011;16268;49.880;8.648;2023-03-22T03:38:35;9.40;;;5.63;;
29240;SDS011;16268;49.880;8.648;2023-03-22T03:41:07;10.18;;;5.90;;
29240;SDS011;16268;49.880;8.648;2023-03-22T03:43:37;10.73;;;5.85;;
29240;SDS011;16268;49.880;8.648;2023-03-22T03:46:04;10.70;;;6.43;;
29240;SDS011;16268;49.880;8.648;2023-03-22T03:48:31;11.85;;;6.00;;
29240;SDS011;16268;49.880;8.648;2023-03-22T03:51:00;10.83;;;6.47;;
29240;SDS011;16268;49.880;8.648;2023-03-22T03:53:26;11.45;;;5.88;;
29240;SDS011;16268;49.880;8.648;2023-03-22T03:55:52;9.82;;;5.95;;
29240;SDS011;16268;49.880;8.648;2023-03-22T03:58:18;9.07;;;5.30;;
29240;SDS011;16268;49.880;8.648;2023-03-22T04:00:44;13.00;;;5.63;;
29240;SDS011;16268;49.880;8.648;2023-03-22T04:03:10;14.18;;;5.78;;
29240;SDS011;16268;49.880;8.648;2023-03-22T04:05:37;12.93;;;5.85;;
29240;SDS011;16268;49.880;8.648;2023-03-22T04:08:03;7.47;;;5.20;;
29240;SDS011;16268;49.880;8.648;2023-03-22T04:10:29;9.55;;;5.03;;
29240;SDS011;16268;49.880;8.648;2023-03-22T04:12:54;9.15;;;5.80;;
29240;SDS011;16268;49.880;8.648;2023-03-22T04:15:20;9.32;;;5.40;;
29240;SDS011;16268;49.880;8.648;2023-03-22T04:17:45;10.90;;;5.53;;
29240;SDS011;16268;49.880;8.648;2023-03-22T04:20:11;10.35;;;5.93;;
29240;SDS011;16268;49.880;8.648;2023-03-22T04:22:38;9.93;;;5.65;;
29240;SDS011;16268;49.880;8.648;2023-03-22T04:25:05;8.50;;;5.22;;
29240;SDS011;16268;49.880;8.648;2023-03-22T04:27:36;9.32;;;5.28;;
29240;SDS011;16268;49.880;8.648;2023-03-22T04:30:06;10.15;;;5.55;;
29240;SDS011;16268;49.880;8.648;2023-03-22T04:32:36;9.85;;;5.00;;
29240;SDS011;16268;49.880;8.648;2023-03-22T04:35:03;9.05;;;5.20;;
29240;SDS011;16268;49.880;8.648;2023-03-22T04:37:29;10.00;;;5.35;;
29240;SDS011;16268;49.880;8.648;2023-03-22T04:39:57;8.63;;;4.97;;
29240;SDS011;16268;49.880;8.648;2023-03-22T04:42:23;10.38;;;5.20;;
29240;SDS011;16268;49.880;8.648;2023-03-22T04:44:49;10.40;;;5.57;;
29240;SDS011;16268;49.880;8.648;2023-03-22T04:47:14;9.10;;;5.22;;
29240;SDS011;16268;49.880;8.648;2023-03-22T04:49:41;11.77;;;5.50;;
29240;SDS011;16268;49.880;8.648;2023-03-22T04:52:07;9.15;;;4.75;;
29240;SDS011;16268;49.880;8.648;2023-03-22T04:54:33;9.30;;;5.00;;
29240;SDS011;16268;49.880;8.648;2023-03-22T04:56:58;9.00;;;5.30;;
29240;SDS011;16268;49.880;8.648;2023-03-22T04:59:25;8.95;;;5.00;;
29240;SDS011;16268;49.880;8.648;2023-03-22T05:01:51;10.68;;;5.22;;
29240;SDS011;16268;49.880;8.648;2023-03-22T05:04:17;9.20;;;5.47;;
29240;SDS011;16268;49.880;8.648;2023-03-22T05:06:43;10.50;;;5.45;;
29240;SDS011;16268;49.880;8.648;2023-03-22T05:09:09;12.52;;;5.20;;
29240;SDS011;16268;49.880;8.648;2023-03-22T05:11:35;10.52;;;5.35;;
29240;SDS011;16268;49.880;8.648;2023-03-22T05:14:01;7.90;;;5.20;;
29240;SDS011;16268;49.880;8.648;2023-03-22T05:16:26;7.53;;;5.22;;
29240;SDS011;16268;49.880;8.648;2023-03-22T05:18:52;9.48;;;4.93;;
29240;SDS011;16268;49.880;8.648;2023-03-22T05:21:18;8.48;;;5.28;;
29240;SDS011;16268;49.880;8.648;2023-03-22T05:24:05;9.10;;;5.00;;
29240;SDS011;16268;49.880;8.648;2023-03-22T05:26:31;9.40;;;5.53;;
29240;SDS011;16268;49.880;8.648;2023-03-22T05:28:56;11.45;;;5.65;;
29240;SDS011;16268;49.880;8.648;2023-03-22T05:31:22;10.63;;;5.13;;
29240;SDS011;16268;49.880;8.648;2023-03-22T05:33:48;10.18;;;5.80;;
29240;SDS011;16268;49.880;8.648;2023-03-22T05:36:17;8.63;;;5.28;;
29240;SDS011;16268;49.880;8.648;2023-03-22T05:38:44;9.10;;;5.28;;
29240;SDS011;16268;49.880;8.648;2023-03-22T05:41:10;9.18;;;5.47;;
29240;SDS011;16268;49.880;8.648;2023-03-22T05:43:37;10.52;;;5.45;;
29240;SDS011;16268;49.880;8.648;2023-03-22T05:46:04;9.43;;;5.18;;
29240;SDS011;16268;49.880;8.648;2023-03-22T05:48:34;9.27;;;5.40;;
29240;SDS011;16268;49.880;8.648;2023-03-22T05:51:00;10.68;;;5.75;;
29240;SDS011;16268;49.880;8.648;2023-03-22T05:53:29;8.38;;;5.18;;
29240;SDS011;16268;49.880;8.648;2023-03-22T05:55:55;10.20;;;6.18;;
29240;SDS011;16268;49.880;8.648;2023-03-22T05:58:24;9.90;;;5.50;;
29240;SDS011;16268;49.880;8.648;2023-03-22T06:00:54;9.18;;;5.10;;
29240;SDS011;16268;49.880;8.648;2023-03-22T06:03:20;10.20;;;5.93;;
29240;SDS011;16268;49.880;8.648;2023-03-22T06:05:46;11.00;;;5.60;;
29240;SDS011;16268;49.880;8.648;2023-03-22T06:08:14;8.55;;;5.57;;
29240;SDS011;16268;49.880;8.648;2023-03-22T06:10:40;7.60;;;5.18;;
29240;SDS011;16268;49.880;8.648;2023-03-22T06:13:06;8.63;;;5.50;;
29240;SDS011;16268;49.880;8.648;2023-03-22T06:15:32;9.73;;;5.00;;
29240;SDS011;16268;49.880;8.648;2023-03-22T06:17:57;10.25;;;4.88;;
29240;SDS011;16268;49.880;8.648;2023-03-22T06:20:23;10.40;;;5.25;;
29240;SDS011;16268;49.880;8.648;2023-03-22T06:22:49;9.77;;;4.90;;
29240;SDS011;16268;49.880;8.648;2023-03-22T06:25:15;8.70;;;4.97;;
29240;SDS011;16268;49.880;8.648;2023-03-22T06:27:40;11.23;;;4.93;;
29240;SDS011;16268;49.880;8.648;2023-03-22T06:30:06;8.88;;;4.57;;
29240;SDS011;16268;49.880;8.648;2023-03-22T06:32:32;8.20;;;5.07;;
29240;SDS011;16268;49.880;8.648;2023-03-22T06:34:57;7.13;;;4.35;;
29240;SDS011;16268;49.880;8.648;2023-03-22T06:37:23;8.80;;;4.75;;
29240;SDS011;16268;49.880;8.648;2023-03-22T06:39:49;8.38;;;4.40;;
29240;SDS011;16268;49.880;8.648;2023-03-22T06:42:15;8.07;;;4.43;;
29240;SDS011;16268;49.880;8.648;2023-03-22T06:44:41;7.97;;;4.05;;
29240;SDS011;16268;49.880;8.648;2023-03-22T06:47:08;8.82;;;4.43;;
29240;SDS011;16268;49.880;8.648;2023-03-22T06:49:34;8.98;;;4.15;;
29240;SDS011;16268;49.880;8.648;2023-03-22T06:52:00;7.28;;;4.18;;
29240;SDS011;16268;49.880;8.648;2023-03-22T06:54:26;8.15;;;4.53;;
29240;SDS011;16268;49.880;8.648;2023-03-22T06:56:52;8.45;;;4.13;;
29240;SDS011;16268;49.880;8.648;2023-03-22T06:59:17;9.07;;;3.70;;
29240;SDS011;16268;49.880;8.648;2023-03-22T07:01:43;8.70;;;4.13;;
29240;SDS011;16268;49.880;8.648;2023-03-22T07:04:08;6.30;;;3.95;;
29240;SDS011;16268;49.880;8.648;2023-03-22T07:06:34;7.65;;;3.67;;
29240;SDS011;16268;49.880;8.648;2023-03-22T07:09:00;8.13;;;3.97;;
29240;SDS011;16268;49.880;8.648;2023-03-22T07:11:26;8.15;;;3.80;;
29240;SDS011;16268;49.880;8.648;2023-03-22T07:13:52;7.72;;;3.97;;
29240;SDS011;16268;49.880;8.648;2023-03-22T07:16:18;7.88;;;4.25;;
29240;SDS011;16268;49.880;8.648;2023-03-22T07:18:44;8.60;;;3.83;;
29240;SDS011;16268;49.880;8.648;2023-03-22T07:21:10;9.45;;;4.00;;
29240;SDS011;16268;49.880;8.648;2023-03-22T07:23:36;8.23;;;4.07;;
29240;SDS011;16268;49.880;8.648;2023-03-22T07:26:01;8.18;;;3.88;;
29240;SDS011;16268;49.880;8.648;2023-03-22T07:28:27;7.25;;;4.10;;
29240;SDS011;16268;49.880;8.648;2023-03-22T07:31:03;8.35;;;4.18;;
29240;SDS011;16268;49.880;8.648;2023-03-22T07:33:31;9.50;;;4.63;;
29240;SDS011;16268;49.880;8.648;2023-03-22T07:35:56;8.07;;;4.05;;
29240;SDS011;16268;49.880;8.648;2023-03-22T07:38:22;11.35;;;4.38;;
29240;SDS011;16268;49.880;8.648;2023-03-22T07:40:50;8.73;;;4.47;;
29240;SDS011;16268;49.880;8.648;2023-03-22T07:43:19;8.52;;;4.22;;
29240;SDS011;16268;49.880;8.648;2023-03-22T07:45:47;10.48;;;4.53;;
29240;SDS011;16268;49.880;8.648;2023-03-22T07:48:13;8.07;;;3.80;;
29240;SDS011;16268;49.880;8.648;2023-03-22T07:50:38;8.07;;;3.70;;
29240;SDS011;16268;49.880;8.648;2023-03-22T07:53:04;11.60;;;4.60;;
29240;SDS011;16268;49.880;8.648;2023-03-22T07:55:29;9.75;;;3.83;;
29240;SDS011;16268;49.880;8.648;2023-03-22T07:57:55;7.65;;;3.90;;
29240;SDS011;16268;49.880;8.648;2023-03-22T08:00:21;9.23;;;4.10;;
29240;SDS011;16268;49.880;8.648;2023-03-22T08:02:47;6.18;;;3.70;;
29240;SDS011;16268;49.880;8.648;2023-03-22T08:05:12;7.10;;;3.47;;
29240;SDS011;16268;49.880;8.648;2023-03-22T08:07:38;7.93;;;3.90;;
29240;SDS011;16268;49.880;8.648;2023-03-22T08:10:04;9.02;;;3.42;;
29240;SDS011;16268;49.880;8.648;2023-03-22T08:12:30;7.57;;;3.05;;
29240;SDS011;16268;49.880;8.648;2023-03-22T08:14:56;7.45;;;3.50;;
29240;SDS011;16268;49.880;8.648;2023-03-22T08:17:21;6.90;;;3.15;;
29240;SDS011;16268;49.880;8.648;2023-03-22T08:19:47;7.15;;;3.45;;
29240;SDS011;16268;49.880;8.648;2023-03-22T08:22:13;7.72;;;3.25;;
29240;SDS011;16268;49.880;8.648;2023-03-22T08:24:39;8.27;;;3.50;;
29240;SDS011;16268;49.880;8.648;2023-03-22T08:27:05;7.97;;;3.60;;
29240;SDS011;16268;49.880;8.648;2023-03-22T08:29:31;8.65;;;3.00;;
29240;SDS011;16268;49.880;8.648;2023-03-22T08:31:56;9.73;;;3.10;;
29240;SDS011;16268;49.880;8.648;2023-03-22T08:34:26;10.35;;;2.92;;
29240;SDS011;16268;49.880;8.648;2023-03-22T08:36:52;8.23;;;3.10;;
29240;SDS011;16268;49.880;8.648;2023-03-22T08:39:18;8.98;;;3.28;;
29240;SDS011;16268;49.880;8.648;2023-03-22T08:41:43;8.63;;;2.97;;
29240;SDS011;16268;49.880;8.648;2023-03-22T08:44:09;7.38;;;3.15;;
29240;SDS011;16268;49.880;8.648;2023-03-22T08:46:34;6.68;;;3.10;;
29240;SDS011;16268;49.880;8.648;2023-03-22T08:49:00;7.55;;;3.55;;
29240;SDS011;16268;49.880;8.648;2023-03-22T08:51:26;8.02;;;3.90;;
29240;SDS011;16268;49.880;8.648;2023-03-22T08:53:52;6.00;;;3.08;;
29240;SDS011;16268;49.880;8.648;2023-03-22T08:56:17;6.53;;;3.20;;
29240;SDS011;16268;49.880;8.648;2023-03-22T08:58:44;7.78;;;3.60;;
29240;SDS011;16268;49.880;8.648;2023-03-22T09:01:11;5.60;;;3.05;;
29240;SDS011;16268;49.880;8.648;2023-03-22T09:03:40;6.55;;;3.38;;
29240;SDS011;16268;49.880;8.648;2023-03-22T09:06:06;6.22;;;3.70;;
29240;SDS011;16268;49.880;8.648;2023-03-22T09:08:32;6.43;;;3.17;;
29240;SDS011;16268;49.880;8.648;2023-03-22T09:10:58;6.55;;;3.08;;
29240;SDS011;16268;49.880;8.648;2023-03-22T09:13:24;5.18;;;2.75;;
29240;SDS011;16268;49.880;8.648;2023-03-22T09:15:50;5.35;;;2.60;;
29240;SDS011;16268;49.880;8.648;2023-03-22T09:18:16;5.60;;;2.45;;
29240;SDS011;16268;49.880;8.648;2023-03-22T09:20:42;7.03;;;2.60;;
29240;SDS011;16268;49.880;8.648;2023-03-22T09:23:09;5.47;;;2.30;;
29240;SDS011;16268;49.880;8.648;2023-03-22T09:25:34;4.90;;;2.58;;
29240;SDS011;16268;49.880;8.648;2023-03-22T09:28:00;7.30;;;2.75;;
29240;SDS011;16268;49.880;8.648;2023-03-22T09:30:26;7.47;;;2.42;;
29240;SDS011;16268;49.880;8.648;2023-03-22T09:32:51;7.90;;;3.28;;
29240;SDS011;16268;49.880;8.648;2023-03-22T09:35:17;4.63;;;1.92;;
29240;SDS011;16268;49.880;8.648;2023-03-22T09:37:42;4.60;;;1.80;;
29240;SDS011;16268;49.880;8.648;2023-03-22T09:40:09;8.10;;;2.08;;
29240;SDS011;16268;49.880;8.648;2023-03-22T09:42:43;3.72;;;1.55;;
29240;SDS011;16268;49.880;8.648;2023-03-22T09:45:15;5.45;;;1.90;;
29240;SDS011;16268;49.880;8.648;2023-03-22T09:47:50;5.80;;;1.88;;
29240;SDS011;16268;49.880;8.648;2023-03-22T09:50:20;8.15;;;2.88;;
29240;SDS011;16268;49.880;8.648;2023-03-22T09:52:47;5.17;;;1.80;;
29240;SDS011;16268;49.880;8.648;2023-03-22T09:58:05;4.03;;;1.42;;
29240;SDS011;16268;49.880;8.648;2023-03-22T10:00:50;3.35;;;1.23;;
29240;SDS011;16268;49.880;8.648;2023-03-22T10:06:17;4.32;;;1.00;;
29240;SDS011;16268;49.880;8.648;2023-03-22T10:09:46;4.70;;;1.27;;
29240;SDS011;16268;49.880;8.648;2023-03-22T10:11:53;4.53;;;1.35;;
29240;SDS011;16268;49.880;8.648;2023-03-22T10:14:39;2.38;;;0.90;;
29240;SDS011;16268;49.880;8.648;2023-03-22T10:17:10;3.78;;;1.20;;
29240;SDS011;16268;49.880;8.648;2023-03-22T10:19:59;3.08;;;1.10;;
29240;SDS011;16268;49.880;8.648;2023-03-22T10:22:34;2.58;;;0.98;;
29240;SDS011;16268;49.880;8.648;2023-03-22T10:25:02;4.50;;;0.90;;
29240;SDS011;16268;49.880;8.648;2023-03-22T10:27:31;3.33;;;1.08;;
29240;SDS011;16268;49.880;8.648;2023-03-22T10:32:30;3.30;;;1.10;;
29240;SDS011;16268;49.880;8.648;2023-03-22T10:35:15;3.97;;;1.40;;
29240;SDS011;16268;49.880;8.648;2023-03-22T10:37:42;4.25;;;1.33;;
29240;SDS011;16268;49.880;8.648;2023-03-22T10:40:12;3.25;;;1.00;;
29240;SDS011;16268;49.880;8.648;2023-03-22T10:42:59;3.25;;;1.17;;
29240;SDS011;16268;49.880;8.648;2023-03-22T10:45:30;2.53;;;0.90;;
29240;SDS011;16268;49.880;8.648;2023-03-22T10:47:59;4.35;;;1.08;;
29240;SDS011;16268;49.880;8.648;2023-03-22T10:50:32;6.10;;;1.23;;
29240;SDS011;16268;49.880;8.648;2023-03-22T10:56:12;4.55;;;1.10;;
29240;SDS011;16268;49.880;8.648;2023-03-22T10:58:39;2.03;;;1.00;;
29240;SDS011;16268;49.880;8.648;2023-03-22T11:01:15;3.55;;;1.00;;
29240;SDS011;16268;49.880;8.648;2023-03-22T11:06:47;2.17;;;0.80;;
29240;SDS011;16268;49.880;8.648;2023-03-22T11:09:16;3.90;;;0.95;;
29240;SDS011;16268;49.880;8.648;2023-03-22T11:16:58;2.45;;;0.82;;
29240;SDS011;16268;49.880;8.648;2023-03-22T11:19:31;2.65;;;0.80;;
29240;SDS011;16268;49.880;8.648;2023-03-22T11:22:03;3.35;;;0.90;;
29240;SDS011;16268;49.880;8.648;2023-03-22T11:24:32;4.00;;;1.23;;
29240;SDS011;16268;49.880;8.648;2023-03-22T11:27:03;3.83;;;1.67;;
29240;SDS011;16268;49.880;8.648;2023-03-22T11:29:43;2.45;;;1.08;;
29240;SDS011;16268;49.880;8.648;2023-03-22T11:32:20;2.30;;;0.85;;
29240;SDS011;16268;49.880;8.648;2023-03-22T11:35:15;2.58;;;0.90;;
29240;SDS011;16268;49.880;8.648;2023-03-22T11:37:52;2.03;;;0.70;;
29240;SDS011;16268;49.880;8.648;2023-03-22T11:40:23;3.30;;;0.82;;
29240;SDS011;16268;49.880;8.648;2023-03-22T11:42:51;2.30;;;0.80;;
29240;SDS011;16268;49.880;8.648;2023-03-22T11:45:30;2.92;;;1.00;;
29240;SDS011;16268;49.880;8.648;2023-03-22T11:48:11;2.05;;;0.77;;
29240;SDS011;16268;49.880;8.648;2023-03-22T11:50:48;2.23;;;0.80;;
29240;SDS011;16268;49.880;8.648;2023-03-22T11:53:18;3.70;;;0.88;;
29240;SDS011;16268;49.880;8.648;2023-03-22T11:55:48;1.88;;;0.80;;
29240;SDS011;16268;49.880;8.648;2023-03-22T11:58:24;2.55;;;1.00;;
29240;SDS011;16268;49.880;8.648;2023-03-22T12:01:09;4.10;;;1.60;;
29240;SDS011;16268;49.880;8.648;2023-03-22T12:03:49;5.07;;;1.20;;
29240;SDS011;16268;49.880;8.648;2023-03-22T12:06:21;3.00;;;0.80;;
29240;SDS011;16268;49.880;8.648;2023-03-22T12:11:54;3.50;;;1.00;;
29240;SDS011;16268;49.880;8.648;2023-03-22T12:14:25;2.88;;;0.88;;
29240;SDS011;16268;49.880;8.648;2023-03-22T12:17:07;4.15;;;1.10;;
29240;SDS011;16268;49.880;8.648;2023-03-22T12:22:16;3.50;;;1.00;;
29240;SDS011;16268;49.880;8.648;2023-03-22T12:24:49;4.00;;;0.80;;
29240;SDS011;16268;49.880;8.648;2023-03-22T12:29:51;2.83;;;1.10;;
29240;SDS011;16268;49.880;8.648;2023-03-22T12:32:32;4.38;;;0.93;;
29240;SDS011;16268;49.880;8.648;2023-03-22T12:35:00;2.63;;;0.80;;
29240;SDS011;16268;49.880;8.648;2023-03-22T12:37:32;2.25;;;0.85;;
29240;SDS011;16268;49.880;8.648;2023-03-22T12:40:00;3.38;;;0.90;;
29240;SDS011;16268;49.880;8.648;2023-03-22T12:42:36;3.17;;;1.23;;
29240;SDS011;16268;49.880;8.648;2023-03-22T12:45:18;2.65;;;1.00;;
29240;SDS011;16268;49.880;8.648;2023-03-22T12:47:50;2.35;;;1.00;;
29240;SDS011;16268;49.880;8.648;2023-03-22T12:50:31;4.82;;;0.93;;
29240;SDS011;16268;49.880;8.648;2023-03-22T12:53:01;3.08;;;1.02;;
29240;SDS011;16268;49.880;8.648;2023-03-22T12:55:32;5.05;;;1.23;;
29240;SDS011;16268;49.880;8.648;2023-03-22T12:58:00;3.33;;;0.85;;
29240;SDS011;16268;49.880;8.648;2023-03-22T13:00:43;1.70;;;0.80;;
29240;SDS011;16268;49.880;8.648;2023-03-22T13:05:43;3.42;;;1.00;;
29240;SDS011;16268;49.880;8.648;2023-03-22T13:08:09;3.95;;;1.15;;
29240;SDS011;16268;49.880;8.648;2023-03-22T13:21:09;3.00;;;0.90;;
29240;SDS011;16268;49.880;8.648;2023-03-22T13:23:58;2.65;;;0.90;;
29240;SDS011;16268;49.880;8.648;2023-03-22T13:26:33;3.50;;;1.20;;
29240;SDS011;16268;49.880;8.648;2023-03-22T13:29:15;3.63;;;1.40;;
29240;SDS011;16268;49.880;8.648;2023-03-22T13:31:43;4.45;;;1.90;;
29240;SDS011;16268;49.880;8.648;2023-03-22T13:34:16;3.83;;;0.93;;
29240;SDS011;16268;49.880;8.648;2023-03-22T13:36:47;3.80;;;0.85;;
29240;SDS011;16268;49.880;8.648;2023-03-22T13:39:19;3.90;;;1.17;;
29240;SDS011;16268;49.880;8.648;2023-03-22T13:41:58;3.28;;;0.90;;
29240;SDS011;16268;49.880;8.648;2023-03-22T13:44:28;3.38;;;1.00;;
29240;SDS011;16268;49.880;8.648;2023-03-22T13:47:27;5.05;;;0.98;;
29240;SDS011;16268;49.880;8.648;2023-03-22T13:49:56;5.18;;;1.60;;
29240;SDS011;16268;49.880;8.648;2023-03-22T13:52:32;4.50;;;1.15;;
29240;SDS011;16268;49.880;8.648;2023-03-22T13:55:00;3.78;;;1.30;;
29240;SDS011;16268;49.880;8.648;2023-03-22T13:57:43;4.30;;;1.20;;
29240;SDS011;16268;49.880;8.648;2023-03-22T14:00:19;2.95;;;1.10;;
29240;SDS011;16268;49.880;8.648;2023-03-22T14:03:07;3.08;;;1.02;;
29240;SDS011;16268;49.880;8.648;2023-03-22T14:05:41;4.13;;;1.08;;
29240;SDS011;16268;49.880;8.648;2023-03-22T14:08:18;2.83;;;1.00;;
29240;SDS011;16268;49.880;8.648;2023-03-22T14:10:51;1.83;;;0.70;;
29240;SDS011;16268;49.880;8.648;2023-03-22T14:13:26;2.72;;;1.02;;
29240;SDS011;16268;49.880;8.648;2023-03-22T14:16:12;3.30;;;1.00;;
29240;SDS011;16268;49.880;8.648;2023-03-22T14:19:17;3.80;;;1.20;;
29240;SDS011;16268;49.880;8.648;2023-03-22T14:21:47;1.92;;;0.93;;
29240;SDS011;16268;49.880;8.648;2023-03-22T14:26:46;2.22;;;0.90;;
29240;SDS011;16268;49.880;8.648;2023-03-22T14:29:16;3.33;;;1.05;;
29240;SDS011;16268;49.880;8.648;2023-03-22T14:31:44;2.65;;;1.10;;
29240;SDS011;16268;49.880;8.648;2023-03-22T14:34:15;5.28;;;1.20;;
29240;SDS011;16268;49.880;8.648;2023-03-22T14:36:44;2.88;;;1.10;;
29240;SDS011;16268;49.880;8.648;2023-03-22T14:39:11;3.15;;;1.15;;
29240;SDS011;16268;49.880;8.648;2023-03-22T14:41:57;2.38;;;1.15;;
29240;SDS011;16268;49.880;8.648;2023-03-22T14:44:29;3.90;;;1.27;;
29240;SDS011;16268;49.880;8.648;2023-03-22T14:47:09;4.00;;;1.17;;
29240;SDS011;16268;49.880;8.648;2023-03-22T14:49:46;2.28;;;0.90;;
29240;SDS011;16268;49.880;8.648;2023-03-22T14:52:20;2.75;;;0.88;;
29240;SDS011;16268;49.880;8.648;2023-03-22T14:54:48;4.22;;;1.08;;
29240;SDS011;16268;49.880;8.648;2023-03-22T14:57:16;3.47;;;1.00;;
29240;SDS011;16268;49.880;8.648;2023-03-22T14:59:43;2.85;;;0.90;;
29240;SDS011;16268;49.880;8.648;2023-03-22T15:02:20;3.50;;;1.05;;
29240;SDS011;16268;49.880;8.648;2023-03-22T15:04:47;3.22;;;0.85;;
29240;SDS011;16268;49.880;8.648;2023-03-22T15:07:15;3.42;;;1.00;;
29240;SDS011;16268;49.880;8.648;2023-03-22T15:09:43;6.78;;;1.25;;
29240;SDS011;16268;49.880;8.648;2023-03-22T15:12:09;4.13;;;1.25;;
29240;SDS011;16268;49.880;8.648;2023-03-22T15:14:36;3.55;;;1.13;;
29240;SDS011;16268;49.880;8.648;2023-03-22T15:17:02;2.53;;;1.00;;
29240;SDS011;16268;49.880;8.648;2023-03-22T15:19:33;4.05;;;1.10;;
29240;SDS011;16268;49.880;8.648;2023-03-22T15:24:38;3.63;;;1.10;;
29240;SDS011;16268;49.880;8.648;2023-03-22T15:27:11;2.47;;;0.85;;
29240;SDS011;16268;49.880;8.648;2023-03-22T15:29:41;3.53;;;1.08;;
29240;SDS011;16268;49.880;8.648;2023-03-22T15:32:23;3.33;;;0.97;;
29240;SDS011;16268;49.880;8.648;2023-03-22T15:34:51;3.30;;;1.13;;
29240;SDS011;16268;49.880;8.648;2023-03-22T15:37:28;3.40;;;1.00;;
29240;SDS011;16268;49.880;8.648;2023-03-22T15:39:56;2.28;;;1.05;;
29240;SDS011;16268;49.880;8.648;2023-03-22T15:45:13;3.13;;;1.17;;
29240;SDS011;16268;49.880;8.648;2023-03-22T15:47:53;3.25;;;1.23;;
29240;SDS011;16268;49.880;8.648;2023-03-22T15:50:40;2.70;;;0.90;;
29240;SDS011;16268;49.880;8.648;2023-03-22T15:53:10;3.47;;;1.10;;
29240;SDS011;16268;49.880;8.648;2023-03-22T15:55:54;2.72;;;1.13;;
29240;SDS011;16268;49.880;8.648;2023-03-22T15:58:25;3.55;;;1.20;;
29240;SDS011;16268;49.880;8.648;2023-03-22T16:00:53;4.47;;;1.17;;
29240;SDS011;16268;49.880;8.648;2023-03-22T16:03:19;2.67;;;1.00;;
29240;SDS011;16268;49.880;8.648;2023-03-22T16:05:45;3.67;;;1.02;;
29240;SDS011;16268;49.880;8.648;2023-03-22T16:08:12;2.78;;;1.10;;
29240;SDS011;16268;49.880;8.648;2023-03-22T16:10:39;4.13;;;1.20;;
29240;SDS011;16268;49.880;8.648;2023-03-22T16:13:08;4.43;;;1.23;;
29240;SDS011;16268;49.880;8.648;2023-03-22T16:15:41;2.55;;;1.05;;
29240;SDS011;16268;49.880;8.648;2023-03-22T16:18:08;4.30;;;1.52;;
29240;SDS011;16268;49.880;8.648;2023-03-22T16:20:38;3.15;;;1.30;;